Time;durP1;ratioP1;P1;durP2;ratioP2;P2;SDS_P1;SDS_P2;PMS_P1;PMS_P2;Temp;Humidity;BMP_temperature;BMP_pressure;BME280_temperature;BME280_humidity;BME280_pressure;Samples;Min_cycle;Max_cycle;Signal;HPM_P1;HPM_P2
2022/10/07 00:00:52;;;;;;;134.82;127.28;;;9.90;99.90;;;;;;5016731;28;20035;-77
2022/10/07 00:03:19;;;;;;;143.43;135.30;;;9.80;99.90;;;;;;5016775;28;20551;-77
2022/10/07 00:05:45;;;;;;;138.40;130.55;;;9.80;99.90;;;;;;5016517;28;20487;-77
2022/10/07 00:08:10;;;;;;;136.55;128.85;;;9.80;99.90;;;;;;5015879;28;20031;-77
2022/10/07 00:10:41;;;;;;;143.27;135.15;;;9.80;99.90;;;;;;5016426;28;20177;-77
2022/10/07 00:13:10;;;;;;;139.55;131.40;;;9.80;99.90;;;;;;5015080;28;20034;-77
2022/10/07 00:15:36;;;;;;;143.30;135.10;;;9.80;99.90;;;;;;5016207;28;20113;-77
2022/10/07 00:18:02;;;;;;;140.30;132.15;;;9.80;99.90;;;;;;5016596;28;20113;-77
2022/10/07 00:20:28;;;;;;;138.77;130.95;;;9.90;99.90;;;;;;5016114;28;20058;-77
2022/10/07 00:22:53;;;;;;;141.20;133.30;;;9.90;99.90;;;;;;5016673;28;20169;-77
2022/10/07 00:25:20;;;;;;;116.10;109.65;;;9.90;99.90;;;;;;5014768;28;20065;-77
2022/10/07 00:27:46;;;;;;;99.85;94.55;;;10.00;99.90;;;;;;5014694;28;20559;-77
2022/10/07 00:30:12;;;;;;;110.53;104.50;;;10.00;99.90;;;;;;5015038;28;20122;-77
2022/10/07 00:32:37;;;;;;;103.28;97.72;;;9.90;99.90;;;;;;5016637;28;20522;-77
2022/10/07 00:35:03;;;;;;;1999.90;999.90;;;10.00;99.90;;;;;;5014764;28;20033;-77
2022/10/07 00:37:29;;;;;;;1999.90;999.90;;;10.00;99.90;;;;;;5016519;28;20427;-77
2022/10/07 00:39:54;;;;;;;1999.90;999.90;;;10.00;99.90;;;;;;5016186;28;20520;-77
2022/10/07 00:42:20;;;;;;;1999.90;999.90;;;10.00;99.90;;;;;;5015872;28;20058;-77
2022/10/07 00:44:47;;;;;;;1999.90;999.90;;;10.00;99.90;;;;;;5016022;28;20070;-77
2022/10/07 00:47:23;;;;;;;1999.90;999.90;;;10.00;99.90;;;;;;5016258;28;20120;-77
2022/10/07 00:50:01;;;;;;;1999.90;999.90;;;10.10;99.90;;;;;;5015953;28;20034;-77
2022/10/07 00:52:30;;;;;;;1999.90;999.90;;;10.10;99.90;;;;;;5015932;28;20031;-77
2022/10/07 00:54:59;;;;;;;1999.90;999.90;;;10.10;99.90;;;;;;5014351;28;20077;-77
2022/10/07 00:57:27;;;;;;;1999.90;999.90;;;10.20;99.90;;;;;;5016049;28;20109;-77
2022/10/07 00:59:54;;;;;;;1999.90;999.90;;;10.20;99.90;;;;;;5015456;28;20031;-77
2022/10/07 01:02:22;;;;;;;1999.90;999.90;;;10.30;99.90;;;;;;5016015;28;20065;-77
2022/10/07 01:04:48;;;;;;;1999.90;999.90;;;10.20;99.90;;;;;;5015431;28;20030;-77
2022/10/07 01:07:17;;;;;;;1999.90;999.90;;;10.30;99.90;;;;;;5015289;28;20487;-77
2022/10/07 01:09:43;;;;;;;1999.90;999.90;;;10.20;99.90;;;;;;5014199;28;20066;-77
2022/10/07 01:12:16;;;;;;;1999.90;999.90;;;10.20;99.90;;;;;;5015508;28;20455;-77
2022/10/07 01:15:25;;;;;;;1999.90;999.90;;;10.30;99.90;;;;;;5015623;28;20042;-77
2022/10/07 01:18:24;;;;;;;1999.90;999.90;;;10.30;99.90;;;;;;4999867;28;20043;-77
2022/10/07 01:21:17;;;;;;;1999.90;999.90;;;10.30;99.90;;;;;;5015017;28;20121;-77
2022/10/07 01:23:50;;;;;;;1999.90;999.90;;;10.30;99.90;;;;;;5014003;28;20038;-77
2022/10/07 01:26:38;;;;;;;1999.90;999.90;;;10.30;99.90;;;;;;5015328;28;20022;-77
2022/10/07 01:29:28;;;;;;;1999.90;999.90;;;10.30;99.90;;;;;;5014943;28;20496;-77
2022/10/07 01:32:00;;;;;;;1999.90;999.90;;;10.30;99.90;;;;;;5007578;28;20058;-77
2022/10/07 01:34:26;;;;;;;1999.90;999.90;;;10.30;99.90;;;;;;5013604;28;20045;-77
2022/10/07 01:36:55;;;;;;;1999.90;999.90;;;10.30;99.90;;;;;;5012989;28;20174;-77
2022/10/07 01:39:26;;;;;;;1999.90;999.90;;;10.40;99.90;;;;;;5013588;28;20173;-77
2022/10/07 01:41:53;;;;;;;1999.90;999.90;;;10.40;99.90;;;;;;5015251;28;20515;-77
2022/10/07 01:44:19;;;;;;;1999.90;999.90;;;10.30;99.90;;;;;;5013735;28;20555;-77
2022/10/07 01:46:46;;;;;;;1999.90;999.90;;;10.40;99.90;;;;;;5013491;28;20034;-77
2022/10/07 01:49:12;;;;;;;1999.90;999.90;;;10.50;99.90;;;;;;5013369;28;20073;-77
2022/10/07 01:51:40;;;;;;;1999.90;999.90;;;10.50;99.90;;;;;;5015204;28;20030;-77
2022/10/07 01:54:37;;;;;;;1999.90;999.90;;;10.50;99.90;;;;;;5015482;28;20038;-76
2022/10/07 01:57:17;;;;;;;1999.90;999.90;;;10.50;99.90;;;;;;5014722;28;20034;-77
2022/10/07 01:59:54;;;;;;;1999.90;999.90;;;10.60;99.90;;;;;;5014845;28;20476;-76
2022/10/07 02:02:51;;;;;;;1999.90;999.90;;;10.60;99.90;;;;;;5015072;28;20042;-76
2022/10/07 02:05:26;;;;;;;1999.90;999.90;;;10.60;99.90;;;;;;5012995;28;20717;-77
2022/10/07 02:08:10;;;;;;;1999.90;999.90;;;10.60;99.90;;;;;;5014766;28;20038;-77
2022/10/07 02:10:45;;;;;;;1999.90;999.90;;;10.60;99.90;;;;;;5014916;28;20034;-77
2022/10/07 02:13:57;;;;;;;1999.90;999.90;;;10.60;99.90;;;;;;5014869;28;20038;-76
2022/10/07 02:16:44;;;;;;;1999.90;999.90;;;10.70;99.90;;;;;;4998430;28;20034;-77
2022/10/07 02:19:17;;;;;;;1999.90;999.90;;;10.70;99.90;;;;;;5014677;28;20629;-76
2022/10/07 02:21:45;;;;;;;1999.90;999.90;;;10.70;99.90;;;;;;5013254;28;20038;-77
2022/10/07 02:24:12;;;;;;;1999.90;999.90;;;10.70;99.90;;;;;;5014544;28;20035;-77
2022/10/07 02:26:39;;;;;;;1999.90;999.90;;;10.80;99.90;;;;;;5014385;28;20120;-77
2022/10/07 02:29:09;;;;;;;1999.90;999.90;;;10.80;99.90;;;;;;5014032;28;20038;-77
2022/10/07 02:31:36;;;;;;;1999.90;999.90;;;10.80;99.90;;;;;;5013968;28;20034;-77
2022/10/07 02:34:06;;;;;;;1999.90;999.90;;;10.80;99.90;;;;;;5014464;28;20526;-77
2022/10/07 02:36:36;;;;;;;1999.90;999.90;;;10.80;99.90;;;;;;5014250;28;20038;-77
2022/10/07 02:39:02;;;;;;;1999.90;999.90;;;10.80;99.90;;;;;;5014181;28;20039;-77
2022/10/07 02:42:01;;;;;;;1999.90;999.90;;;10.80;99.90;;;;;;5014533;28;20030;-77
2022/10/07 02:44:46;;;;;;;1999.90;999.90;;;10.80;99.90;;;;;;5009979;28;20504;-77
2022/10/07 02:47:23;;;;;;;1999.90;999.90;;;10.80;99.90;;;;;;5014305;28;20486;-77
2022/10/07 02:49:54;;;;;;;1999.90;999.90;;;10.90;99.90;;;;;;5013965;28;20495;-77
2022/10/07 02:52:21;;;;;;;1999.90;999.90;;;10.80;99.90;;;;;;5014201;28;20062;-76
2022/10/07 02:54:58;;;;;;;1999.90;999.90;;;10.90;99.90;;;;;;5012574;28;20038;-77
2022/10/07 02:57:25;;;;;;;1999.90;999.90;;;10.90;99.90;;;;;;5014137;28;20173;-77
2022/10/07 02:59:53;;;;;;;1999.90;999.90;;;10.90;99.90;;;;;;5014049;28;20034;-76
2022/10/07 03:02:48;;;;;;;1999.90;999.90;;;10.90;99.90;;;;;;5014228;28;20061;-76
2022/10/07 03:05:18;;;;;;;1999.90;999.90;;;11.00;99.90;;;;;;5012560;28;20030;-77
2022/10/07 03:07:48;;;;;;;1999.90;999.90;;;10.90;99.90;;;;;;5013616;28;20096;-77
2022/10/07 03:10:15;;;;;;;1999.90;999.90;;;11.00;99.90;;;;;;5013946;28;20089;-77
2022/10/07 03:12:41;;;;;;;1999.90;999.90;;;11.00;99.90;;;;;;5012549;28;20043;-77
2022/10/07 03:15:07;;;;;;;1999.90;999.90;;;11.00;99.90;;;;;;5013713;28;20110;-77
2022/10/07 03:17:33;;;;;;;1999.90;999.90;;;11.00;99.90;;;;;;5012463;28;20034;-77
2022/10/07 03:19:58;;;;;;;1999.90;999.90;;;11.00;99.90;;;;;;5012135;28;20030;-77
2022/10/07 03:22:24;;;;;;;1999.90;999.90;;;11.00;99.90;;;;;;5014074;28;20042;-77
2022/10/07 03:24:50;;;;;;;1999.90;999.90;;;11.00;99.90;;;;;;5012375;28;20027;-77
2022/10/07 03:27:15;;;;;;;1999.90;999.90;;;11.00;99.90;;;;;;5013696;28;20101;-77
2022/10/07 03:29:41;;;;;;;1999.90;999.90;;;10.90;99.90;;;;;;5011695;28;20085;-77
2022/10/07 03:32:06;;;;;;;1999.90;999.90;;;10.90;99.90;;;;;;5013793;28;20054;-77
2022/10/07 03:34:32;;;;;;;1999.90;999.90;;;10.90;99.90;;;;;;5012228;28;20038;-77
2022/10/07 03:36:58;;;;;;;1999.90;999.90;;;10.90;99.90;;;;;;5013473;28;20551;-77
2022/10/07 03:39:23;;;;;;;1999.90;999.90;;;10.90;99.90;;;;;;5011989;28;20536;-77
2022/10/07 03:41:50;;;;;;;1999.90;999.90;;;10.90;99.90;;;;;;5013805;28;20086;-77
2022/10/07 03:44:18;;;;;;;1999.90;999.90;;;10.90;99.90;;;;;;5016641;28;20381;-77
2022/10/07 03:46:46;;;;;;;1999.90;999.90;;;11.00;99.90;;;;;;5015226;28;20081;-76
2022/10/07 03:49:12;;;;;;;1999.90;999.90;;;11.00;99.90;;;;;;5016815;28;20041;-77
2022/10/07 03:51:37;;;;;;;1999.90;999.90;;;11.00;99.90;;;;;;5016820;28;20026;-77
2022/10/07 03:54:03;;;;;;;1999.90;999.90;;;11.00;99.90;;;;;;5016979;28;20089;-76
2022/10/07 03:56:28;;;;;;;1999.90;999.90;;;11.00;99.90;;;;;;5016530;28;20481;-77
2022/10/07 03:58:54;;;;;;;1999.90;999.90;;;11.10;99.90;;;;;;5015089;28;20488;-76
2022/10/07 04:01:20;;;;;;;1999.90;999.90;;;11.10;99.90;;;;;;5016779;28;20097;-77
2022/10/07 04:03:46;;;;;;;1999.90;999.90;;;11.10;99.90;;;;;;5016860;28;20046;-76
2022/10/07 04:06:11;;;;;;;1999.90;999.90;;;11.20;99.90;;;;;;5016187;28;20026;-77
2022/10/07 04:08:39;;;;;;;1999.90;999.90;;;11.10;99.90;;;;;;5016515;28;20050;-77
2022/10/07 04:11:05;;;;;;;1999.90;999.90;;;11.20;99.90;;;;;;5015226;28;20041;-76
2022/10/07 04:13:30;;;;;;;1999.90;999.90;;;11.20;99.90;;;;;;5016560;28;20105;-77
2022/10/07 04:15:56;;;;;;;1999.90;999.90;;;11.20;99.90;;;;;;5016627;28;20451;-77
2022/10/07 04:18:22;;;;;;;1999.90;999.90;;;11.20;99.90;;;;;;5016619;28;20031;-77
2022/10/07 04:20:48;;;;;;;1999.90;999.90;;;11.20;99.90;;;;;;5016319;28;20526;-76
2022/10/07 04:23:14;;;;;;;1999.90;999.90;;;11.20;99.90;;;;;;5016433;28;20049;-77
2022/10/07 04:25:45;;;;;;;1999.90;999.90;;;11.20;99.90;;;;;;5015584;28;20045;-77
2022/10/07 04:28:17;;;;;;;1999.90;999.90;;;11.20;99.90;;;;;;5014772;28;20046;-77
2022/10/07 04:30:43;;;;;;;1999.90;999.90;;;11.20;99.90;;;;;;5038923;22;20058;-71
2022/10/07 04:33:10;;;;;;;1999.90;999.90;;;11.20;99.90;;;;;;5015451;28;20114;-72
2022/10/07 04:35:37;;;;;;;1999.90;999.90;;;11.20;99.90;;;;;;5015993;28;20125;-72
2022/10/07 04:38:05;;;;;;;1999.90;999.90;;;11.20;99.90;;;;;;5016216;28;20121;-72
2022/10/07 04:40:31;;;;;;;1999.90;999.90;;;11.20;99.90;;;;;;5015940;28;20030;-72
2022/10/07 04:45:40;;;;;;;1999.90;999.90;;;11.30;99.90;;;;;;5016105;28;20030;-72
2022/10/07 04:48:06;;;;;;;1999.90;999.90;;;11.30;99.90;;;;;;5015785;28;20038;-72
2022/10/07 04:50:37;;;;;;;1999.90;999.90;;;11.30;99.90;;;;;;5015735;28;20030;-72
2022/10/07 04:53:06;;;;;;;1999.90;999.90;;;11.30;99.90;;;;;;5015915;28;20030;-72
2022/10/07 04:55:40;;;;;;;1999.90;999.90;;;11.40;99.90;;;;;;5015508;28;20026;-72
2022/10/07 04:58:06;;;;;;;1999.90;999.90;;;11.30;99.90;;;;;;5015839;28;20034;-72
2022/10/07 05:00:32;;;;;;;1999.90;999.90;;;11.30;99.90;;;;;;5015431;28;20038;-72
2022/10/07 05:02:58;;;;;;;1999.90;999.90;;;11.30;99.90;;;;;;5015949;28;20038;-72
2022/10/07 05:05:26;;;;;;;1999.90;999.90;;;11.30;99.90;;;;;;5015438;28;20026;-72
2022/10/07 05:07:52;;;;;;;1999.90;999.90;;;11.30;99.90;;;;;;5015680;28;20038;-72
2022/10/07 05:10:18;;;;;;;1999.90;999.90;;;11.30;99.90;;;;;;5015557;28;20034;-73
2022/10/07 05:12:44;;;;;;;1999.90;999.90;;;11.30;99.90;;;;;;5015939;28;20046;-73
2022/10/07 05:15:10;;;;;;;1999.90;999.90;;;11.20;99.90;;;;;;5015385;28;20488;-72
2022/10/07 05:17:37;;;;;;;1999.90;999.90;;;11.20;99.90;;;;;;5014906;28;20129;-73
2022/10/07 05:20:03;;;;;;;1999.90;999.90;;;11.30;99.90;;;;;;5015439;28;20030;-73
2022/10/07 05:22:30;;;;;;;1999.90;999.90;;;11.20;99.90;;;;;;5015948;28;20069;-73
2022/10/07 05:24:56;;;;;;;1999.90;999.90;;;11.20;99.90;;;;;;5015382;28;20062;-73
2022/10/07 05:27:22;;;;;;;1999.90;999.90;;;11.20;99.90;;;;;;5015772;28;20045;-72
2022/10/07 05:29:47;;;;;;;1999.90;999.90;;;11.20;99.90;;;;;;5014847;28;20038;-72
2022/10/07 05:32:14;;;;;;;1999.90;999.90;;;11.20;99.90;;;;;;5015383;28;20116;-72
2022/10/07 05:34:39;;;;;;;1999.90;999.90;;;11.20;99.90;;;;;;5015181;28;20034;-72
2022/10/07 05:37:05;;;;;;;1999.90;999.90;;;11.20;99.90;;;;;;5015441;28;20045;-71
2022/10/07 05:39:30;;;;;;;1999.90;999.90;;;11.20;99.90;;;;;;5015174;28;20045;-71
2022/10/07 05:41:56;;;;;;;1999.90;999.90;;;11.20;99.90;;;;;;5015116;28;20411;-71
2022/10/07 05:44:22;;;;;;;1999.90;999.90;;;11.20;99.90;;;;;;5015070;28;20053;-71
2022/10/07 05:46:48;;;;;;;1999.90;999.90;;;11.30;99.90;;;;;;5015163;28;20081;-71
2022/10/07 05:49:14;;;;;;;1999.90;999.90;;;11.30;99.90;;;;;;5013695;28;20129;-72
2022/10/07 05:51:40;;;;;;;1999.90;999.90;;;11.40;99.90;;;;;;5015364;28;20031;-72
2022/10/07 05:54:05;;;;;;;1999.90;999.90;;;11.30;99.90;;;;;;5015087;28;20030;-72
2022/10/07 05:56:31;;;;;;;1999.90;999.90;;;11.40;99.90;;;;;;5014816;28;20030;-71
2022/10/07 05:58:57;;;;;;;1999.90;999.90;;;11.50;99.90;;;;;;5013393;28;20077;-71
2022/10/07 06:01:24;;;;;;;1999.90;999.90;;;11.60;99.90;;;;;;5029896;28;20038;-72
2022/10/07 06:03:51;;;;;;;1999.90;999.90;;;11.60;99.90;;;;;;5033393;28;20038;-72
2022/10/07 06:06:18;;;;;;;1999.90;999.90;;;11.60;99.90;;;;;;5033463;28;20026;-71
2022/10/07 06:08:44;;;;;;;1999.90;999.90;;;11.60;99.90;;;;;;5033320;28;20559;-71
2022/10/07 06:13:56;;;;;;;1999.90;999.90;;;11.70;99.90;;;;;;4998092;28;20035;-72
2022/10/07 06:16:23;;;;;;;1999.90;999.90;;;11.70;99.90;;;;;;4994997;28;20030;-71
2022/10/07 06:18:52;;;;;;;1999.90;999.90;;;11.70;99.90;;;;;;5003387;28;20106;-71
2022/10/07 06:21:18;;;;;;;1999.90;999.90;;;11.80;99.90;;;;;;5005727;28;20496;-71
2022/10/07 06:23:50;;;;;;;1999.90;999.90;;;11.80;99.90;;;;;;5013290;28;20085;-71
2022/10/07 06:26:15;;;;;;;1999.90;999.90;;;11.80;99.90;;;;;;5006638;28;20126;-72
2022/10/07 06:28:41;;;;;;;1999.90;999.90;;;11.80;99.90;;;;;;5004263;28;20045;-72
2022/10/07 06:31:11;;;;;;;1999.90;999.90;;;11.90;99.90;;;;;;5005525;28;20093;-72
2022/10/07 06:33:37;;;;;;;1999.90;999.90;;;12.00;99.90;;;;;;5015825;28;20042;-71
2022/10/07 06:36:09;;;;;;;1999.90;999.90;;;12.00;99.90;;;;;;5013335;28;20026;-72
2022/10/07 06:38:34;;;;;;;1999.90;999.90;;;12.10;99.90;;;;;;5012072;28;20121;-72
2022/10/07 06:41:02;;;;;;;1999.90;999.90;;;12.20;99.90;;;;;;5031976;28;20038;-72
2022/10/07 06:43:29;;;;;;;1999.90;999.90;;;12.30;99.90;;;;;;5033865;28;20038;-72
2022/10/07 06:46:01;;;;;;;1999.90;999.90;;;12.30;99.90;;;;;;5033674;28;20154;-71
2022/10/07 06:48:28;;;;;;;1999.90;999.90;;;12.40;99.90;;;;;;5034051;28;20185;-71
2022/10/07 06:50:55;;;;;;;1999.90;999.90;;;12.50;99.90;;;;;;5025016;28;20633;-71
2022/10/07 06:53:21;;;;;;;1999.90;999.90;;;12.50;99.90;;;;;;5032866;28;20045;-70
2022/10/07 06:55:50;;;;;;;1999.90;999.90;;;12.60;99.90;;;;;;5030076;28;20498;-71
2022/10/07 06:58:25;;;;;;;1999.90;999.90;;;12.60;99.90;;;;;;5031792;28;20589;-71
2022/10/07 07:00:52;;;;;;;1999.90;999.90;;;12.70;99.90;;;;;;5034208;28;20062;-72
2022/10/07 07:03:19;;;;;;;1999.90;999.90;;;12.80;99.90;;;;;;5034569;28;20033;-72
2022/10/07 07:05:45;;;;;;;1999.90;999.90;;;12.80;99.90;;;;;;5034114;28;20030;-72
2022/10/07 07:08:11;;;;;;;1999.90;999.90;;;13.00;99.90;;;;;;5034281;28;20061;-72
2022/10/07 07:10:37;;;;;;;1999.90;999.90;;;13.00;99.90;;;;;;5025272;28;20120;-72
2022/10/07 07:13:05;;;;;;;1999.90;999.90;;;13.10;99.90;;;;;;5017001;28;20498;-72
2022/10/07 07:15:31;;;;;;;1999.90;999.90;;;13.10;99.90;;;;;;5015660;28;20456;-71
2022/10/07 07:17:56;;;;;;;1999.90;999.90;;;13.20;99.90;;;;;;5010906;28;20037;-72
2022/10/07 07:20:22;;;;;;;1999.90;999.90;;;13.30;99.90;;;;;;5016896;28;20046;-74
2022/10/07 07:22:48;;;;;;;1999.90;999.90;;;13.50;99.90;;;;;;5017462;28;20034;-72
2022/10/07 07:25:13;;;;;;;1999.90;999.90;;;13.50;99.90;;;;;;5016883;28;20027;-73
2022/10/07 07:27:40;;;;;;;1999.90;999.90;;;13.50;99.90;;;;;;5017203;28;20503;-77
2022/10/07 07:30:06;;;;;;;1999.90;999.90;;;13.60;99.90;;;;;;5021124;28;20038;-72
2022/10/07 07:32:31;;;;;;;1999.90;999.90;;;13.60;99.90;;;;;;5016839;28;20566;-74
2022/10/07 07:34:59;;;;;;;1999.90;999.90;;;13.90;99.90;;;;;;5016526;28;20030;-74
2022/10/07 07:37:25;;;;;;;1999.90;999.90;;;14.00;99.90;;;;;;5017279;28;20061;-73
2022/10/07 07:39:51;;;;;;;1999.90;999.90;;;14.10;99.90;;;;;;5017076;28;20050;-72
2022/10/07 07:42:17;;;;;;;1999.90;999.90;;;14.20;99.90;;;;;;5017093;28;20037;-72
2022/10/07 07:44:43;;;;;;;1999.90;999.90;;;14.30;99.90;;;;;;5016656;28;20030;-71
2022/10/07 07:47:09;;;;;;;1999.90;999.90;;;14.20;99.90;;;;;;5017060;28;20034;-72
2022/10/07 07:49:34;;;;;;;1999.90;999.90;;;14.20;99.90;;;;;;5015647;28;20113;-73
2022/10/07 07:52:02;;;;;;;1999.90;999.90;;;14.30;99.90;;;;;;5017054;28;20030;-74
2022/10/07 07:54:28;;;;;;;1999.90;999.90;;;14.40;99.90;;;;;;5016927;28;20562;-74
2022/10/07 07:56:54;;;;;;;1999.90;999.90;;;14.50;99.90;;;;;;5016922;28;20110;-72
2022/10/07 07:59:20;;;;;;;1999.90;999.90;;;14.40;99.90;;;;;;5016580;28;20038;-72
2022/10/07 08:01:46;;;;;;;1999.90;999.90;;;14.40;99.90;;;;;;5016760;28;20058;-71
2022/10/07 08:04:12;;;;;;;1999.90;999.90;;;14.60;99.90;;;;;;5016721;28;20034;-71
2022/10/07 08:06:39;;;;;;;1999.90;999.90;;;14.80;99.90;;;;;;5016182;28;20061;-71
2022/10/07 08:09:05;;;;;;;1999.90;999.90;;;14.80;99.90;;;;;;5016645;28;20108;-71
2022/10/07 08:11:31;;;;;;;1999.90;999.90;;;14.90;99.90;;;;;;5016094;28;20078;-71
2022/10/07 08:13:58;;;;;;;1999.90;999.90;;;15.00;99.90;;;;;;5016451;28;20030;-71
2022/10/07 08:16:26;;;;;;;1999.90;999.90;;;15.10;99.90;;;;;;5016581;28;20035;-71
2022/10/07 08:18:54;;;;;;;1999.90;999.90;;;15.10;99.90;;;;;;5016218;28;20109;-71
2022/10/07 08:21:25;;;;;;;1999.90;999.90;;;15.00;99.90;;;;;;5016843;28;20606;-74
2022/10/07 08:23:53;;;;;;;1999.90;999.90;;;15.20;99.90;;;;;;5016404;28;20121;-71
2022/10/07 08:26:19;;;;;;;1999.90;999.90;;;15.20;99.90;;;;;;5015919;28;20496;-72
2022/10/07 08:28:47;;;;;;;1999.90;999.90;;;15.30;99.90;;;;;;5015415;28;20042;-71
2022/10/07 08:31:14;;;;;;;1999.90;999.90;;;15.20;99.90;;;;;;5014178;28;20035;-71
2022/10/07 08:33:43;;;;;;;1999.90;999.90;;;15.30;99.90;;;;;;5016086;28;20519;-71
2022/10/07 08:36:12;;;;;;;1999.90;999.90;;;15.40;99.90;;;;;;5015864;28;20038;-71
2022/10/07 08:38:39;;;;;;;1999.90;999.90;;;15.40;99.90;;;;;;5015932;28;20113;-72
2022/10/07 08:41:32;;;;;;;1999.90;999.90;;;15.50;99.90;;;;;;5016208;28;20033;-71
2022/10/07 08:44:16;;;;;;;1999.90;999.90;;;15.80;99.90;;;;;;5015955;28;20030;-70
2022/10/07 08:46:53;;;;;;;1999.90;999.90;;;15.90;99.90;;;;;;5016009;28;20030;-70
2022/10/07 08:49:28;;;;;;;1999.90;999.90;;;16.10;99.90;;;;;;5015303;28;20048;-71
2022/10/07 08:52:00;;;;;;;1999.90;999.90;;;16.20;99.90;;;;;;5016030;28;20031;-71
2022/10/07 08:54:29;;;;;;;1999.90;999.90;;;16.40;99.90;;;;;;5015905;28;20049;-71
2022/10/07 08:57:02;;;;;;;1999.90;999.90;;;16.70;99.90;;;;;;5015665;28;20037;-71
2022/10/07 08:59:33;;;;;;;117.82;112.05;;;16.90;99.90;;;;;;5015675;28;20057;-72
2022/10/07 09:02:30;;;;;;;110.95;105.57;;;16.90;99.90;;;;;;5016012;28;20026;-72
2022/10/07 09:05:05;;;;;;;89.82;85.45;;;16.90;99.90;;;;;;5015604;28;20061;-72
2022/10/07 09:07:33;;;;;;;79.13;75.03;;;17.10;99.90;;;;;;5008530;28;20038;-72
2022/10/07 09:10:27;;;;;;;84.68;80.07;;;17.00;99.90;;;;;;5004692;28;20115;-71
2022/10/07 09:13:19;;;;;;;73.22;69.63;;;17.00;99.90;;;;;;4991261;28;20051;-71
2022/10/07 09:16:11;;;;;;;71.88;68.18;;;17.30;99.90;;;;;;5015279;28;20129;-77
2022/10/07 09:18:40;;;;;;;85.82;81.68;;;17.60;99.90;;;;;;5015870;28;20081;-71
2022/10/07 09:21:22;;;;;;;83.28;79.18;;;17.80;99.90;;;;;;5015416;28;20089;-76
2022/10/07 09:23:55;;;;;;;89.95;85.30;;;17.80;99.90;;;;;;5015549;28;20047;-71
2022/10/07 09:26:21;;;;;;;86.32;82.13;;;17.70;99.90;;;;;;5003629;28;20027;-72
2022/10/07 09:28:48;;;;;;;79.43;75.32;;;17.80;99.90;;;;;;4995891;28;20050;-73
2022/10/07 09:31:15;;;;;;;79.82;75.82;;;17.80;99.90;;;;;;4996961;28;20042;-71
2022/10/07 09:33:44;;;;;;;78.28;74.05;;;17.80;99.90;;;;;;4995748;28;20043;-81
2022/10/07 09:36:12;;;;;;;81.40;77.28;;;17.90;99.90;;;;;;4997107;28;20512;-75
2022/10/07 09:38:39;;;;;;;81.55;77.45;;;18.00;99.90;;;;;;4996142;28;20034;-74
